createdAt,value
2018-05-24T00:01:29.595Z,2.10
2018-05-24T00:03:57.049Z,1.90
2018-05-24T00:06:24.535Z,1.97
2018-05-24T00:08:52.772Z,1.83
2018-05-24T00:11:20.239Z,2.27
2018-05-24T00:13:47.708Z,1.87
2018-05-24T00:16:15.957Z,1.87
2018-05-24T00:18:43.415Z,2.10
2018-05-24T00:21:10.911Z,1.87
2018-05-24T00:23:39.133Z,2.23
2018-05-24T00:26:06.594Z,2.07
2018-05-24T00:28:34.072Z,1.73
2018-05-24T00:31:01.522Z,1.83
2018-05-24T00:33:28.992Z,1.77
2018-05-24T00:35:56.462Z,1.70
2018-05-24T00:38:24.716Z,1.90
2018-05-24T00:40:52.187Z,1.80
2018-05-24T00:43:19.697Z,1.80
2018-05-24T00:45:47.152Z,1.90
2018-05-24T00:48:14.618Z,2.00
2018-05-24T00:50:42.100Z,1.70
2018-05-24T00:53:09.560Z,1.60
2018-05-24T00:55:41.721Z,1.60
2018-05-24T00:58:09.181Z,1.87
2018-05-24T01:00:36.673Z,1.87
2018-05-24T01:03:04.921Z,2.00
2018-05-24T01:05:32.409Z,1.90
2018-05-24T01:07:59.880Z,1.70
2018-05-24T01:10:27.343Z,2.13
2018-05-24T01:12:54.840Z,1.97
2018-05-24T01:15:22.294Z,1.97
2018-05-24T01:17:49.766Z,2.07
2018-05-24T01:20:17.218Z,2.40
2018-05-24T01:22:44.695Z,1.90
2018-05-24T01:25:12.921Z,1.97
2018-05-24T01:27:40.409Z,2.13
2018-05-24T01:30:07.874Z,1.80
2018-05-24T01:32:35.343Z,1.70
2018-05-24T01:35:02.798Z,1.70
2018-05-24T01:37:42.273Z,1.90
2018-05-24T01:40:09.736Z,1.60
2018-05-24T01:42:37.187Z,1.40
2018-05-24T01:45:04.651Z,1.47
2018-05-24T01:47:32.140Z,1.60
2018-05-24T01:49:59.592Z,1.80
2018-05-24T01:52:27.053Z,1.93
2018-05-24T01:54:54.514Z,1.90
2018-05-24T01:57:21.988Z,1.77
2018-05-24T01:59:49.485Z,1.80
2018-05-24T02:02:16.956Z,1.80
2018-05-24T02:07:18.240Z,1.67
2018-05-24T02:09:45.721Z,2.10
2018-05-24T02:12:13.175Z,1.90
2018-05-24T02:14:40.637Z,1.80
2018-05-24T02:17:08.425Z,2.00
2018-05-24T02:19:36.663Z,1.70
2018-05-24T02:22:04.119Z,1.83
2018-05-24T02:24:31.601Z,1.67
2018-05-24T02:26:59.077Z,2.00
2018-05-24T02:29:27.419Z,1.77
2018-05-24T02:31:55.690Z,1.70
2018-05-24T02:34:23.171Z,1.67
2018-05-24T02:36:50.625Z,1.97
2018-05-24T02:39:18.876Z,1.83
2018-05-24T02:41:46.359Z,1.87
2018-05-24T02:44:13.797Z,2.07
2018-05-24T02:46:41.283Z,1.70
2018-05-24T02:49:09.608Z,1.80
2018-05-24T02:51:37.108Z,1.77
2018-05-24T02:54:04.588Z,2.00
2018-05-24T02:56:32.069Z,1.60
2018-05-24T02:58:59.581Z,1.97
2018-05-24T03:01:27.052Z,1.60
2018-05-24T03:03:55.282Z,1.90
2018-05-24T03:06:22.774Z,1.70
2018-05-24T03:08:50.248Z,1.57
2018-05-24T03:11:18.484Z,1.63
2018-05-24T03:13:45.939Z,1.50
2018-05-24T03:16:13.404Z,1.90
2018-05-24T03:18:40.847Z,1.63
2018-05-24T03:21:08.314Z,1.50
2018-05-24T03:23:35.773Z,1.90
2018-05-24T03:26:03.250Z,1.50
2018-05-24T03:28:30.719Z,1.60
2018-05-24T03:30:58.961Z,1.83
2018-05-24T03:33:26.450Z,1.50
2018-05-24T03:35:54.684Z,1.43
2018-05-24T03:38:22.177Z,1.80
2018-05-24T03:40:49.643Z,2.07
2018-05-24T03:43:17.880Z,1.60
2018-05-24T03:45:45.368Z,1.80
2018-05-24T03:48:12.807Z,2.23
2018-05-24T03:50:40.273Z,1.87
2018-05-24T03:53:07.739Z,1.70
2018-05-24T03:55:35.989Z,1.70
2018-05-24T03:58:03.431Z,1.60
2018-05-24T04:03:48.424Z,1.60
2018-05-24T04:06:15.929Z,2.00
2018-05-24T04:08:44.185Z,1.70
2018-05-24T04:11:11.658Z,1.87
2018-05-24T04:13:39.871Z,1.70
2018-05-24T04:16:07.340Z,1.80
2018-05-24T04:18:34.812Z,1.43
2018-05-24T04:21:02.288Z,1.77
2018-05-24T04:23:29.741Z,1.60
2018-05-24T04:25:57.196Z,1.47
2018-05-24T04:28:24.672Z,1.40
2018-05-24T04:30:52.923Z,1.43
2018-05-24T04:33:21.177Z,1.70
2018-05-24T04:35:48.650Z,1.57
2018-05-24T04:38:16.104Z,1.80
2018-05-24T04:40:43.585Z,1.70
2018-05-24T04:43:11.027Z,1.70
2018-05-24T04:45:38.497Z,1.63
2018-05-24T04:48:05.977Z,1.60
2018-05-24T04:50:34.231Z,1.73
2018-05-24T04:53:01.685Z,1.63
2018-05-24T04:55:29.163Z,1.90
2018-05-24T04:57:57.415Z,1.77
2018-05-24T05:00:24.889Z,1.40
2018-05-24T05:02:52.337Z,1.93
2018-05-24T05:05:19.859Z,1.70
2018-05-24T05:07:47.350Z,1.60
2018-05-24T05:10:14.819Z,1.80
2018-05-24T05:12:42.278Z,1.53
2018-05-24T05:15:09.721Z,1.47
2018-05-24T05:17:37.228Z,1.53
2018-05-24T05:20:04.680Z,1.73
2018-05-24T05:22:32.171Z,1.53
2018-05-24T05:24:59.634Z,1.50
2018-05-24T05:27:27.095Z,1.27
2018-05-24T05:29:54.569Z,1.50
2018-05-24T05:32:22.029Z,1.80
2018-05-24T05:34:49.478Z,1.37
2018-05-24T05:37:16.959Z,1.60
2018-05-24T05:39:45.204Z,1.90
2018-05-24T05:42:12.656Z,1.80
2018-05-24T05:44:40.182Z,1.90
2018-05-24T05:47:07.684Z,1.70
2018-05-24T05:49:35.136Z,1.50
2018-05-24T05:52:02.618Z,1.40
2018-05-24T05:54:30.871Z,1.60
2018-05-24T05:56:58.328Z,1.43
2018-05-24T05:59:26.579Z,1.40
2018-05-24T06:01:54.081Z,1.53
2018-05-24T06:04:22.308Z,1.40
2018-05-24T06:06:49.762Z,1.53
2018-05-24T06:09:17.232Z,1.60
2018-05-24T06:11:44.672Z,1.67
2018-05-24T06:14:12.128Z,1.80
2018-05-24T06:16:39.608Z,1.60
2018-05-24T06:19:07.045Z,1.90
2018-05-24T06:21:34.615Z,1.60
2018-05-24T06:24:02.002Z,1.50
2018-05-24T06:26:29.474Z,1.63
2018-05-24T06:28:56.940Z,1.70
2018-05-24T06:31:25.191Z,1.70
2018-05-24T06:33:52.696Z,1.50
2018-05-24T06:36:20.180Z,1.70
2018-05-24T06:38:47.645Z,1.83
2018-05-24T06:41:15.140Z,1.70
2018-05-24T06:43:43.357Z,1.77
2018-05-24T06:46:10.796Z,2.10
2018-05-24T06:48:38.269Z,1.70
2018-05-24T06:51:05.742Z,1.70
2018-05-24T06:53:33.208Z,2.00
2018-05-24T06:56:00.690Z,1.97
2018-05-24T06:58:28.174Z,2.20
2018-05-24T07:00:56.389Z,1.53
2018-05-24T07:03:23.849Z,2.03
2018-05-24T07:05:51.364Z,1.97
2018-05-24T07:08:18.788Z,1.80
2018-05-24T07:10:46.259Z,1.97
2018-05-24T07:13:13.747Z,2.73
2018-05-24T07:15:41.192Z,1.77
2018-05-24T07:18:08.645Z,1.80
2018-05-24T07:20:36.869Z,1.77
2018-05-24T07:23:04.340Z,2.10
2018-05-24T07:25:31.821Z,2.30
2018-05-24T07:27:59.288Z,1.70
2018-05-24T07:30:27.528Z,1.77
2018-05-24T07:32:54.996Z,2.27
2018-05-24T07:35:22.456Z,2.20
2018-05-24T07:37:49.991Z,2.00
2018-05-24T07:40:18.188Z,2.03
2018-05-24T07:42:45.670Z,2.33
2018-05-24T07:45:13.904Z,1.87
2018-05-24T07:47:41.356Z,2.13
2018-05-24T07:50:08.808Z,2.03
2018-05-24T07:52:36.263Z,1.93
2018-05-24T07:55:03.744Z,2.30
2018-05-24T07:57:31.187Z,2.50
2018-05-24T07:59:58.668Z,2.63
2018-05-24T08:02:26.136Z,1.90
2018-05-24T08:04:53.627Z,2.50
2018-05-24T08:07:21.849Z,2.30
2018-05-24T08:09:49.332Z,2.67
2018-05-24T08:12:16.772Z,2.60
2018-05-24T08:14:44.234Z,2.57
2018-05-24T08:17:11.708Z,2.80
2018-05-24T08:19:39.143Z,2.83
2018-05-24T08:22:06.646Z,2.37
2018-05-24T08:24:34.866Z,2.80
2018-05-24T08:27:02.340Z,2.93
2018-05-24T08:29:30.474Z,2.60
2018-05-24T08:31:58.788Z,3.00
2018-05-24T08:34:26.228Z,3.00
2018-05-24T08:36:53.689Z,3.00
2018-05-24T08:39:21.143Z,3.30
2018-05-24T08:41:48.694Z,3.37
2018-05-24T08:44:16.062Z,3.60
2018-05-24T08:46:43.536Z,3.40
2018-05-24T08:49:11.021Z,3.37
2018-05-24T08:51:39.251Z,2.77
2018-05-24T08:54:06.721Z,2.90
2018-05-24T08:56:34.956Z,3.30
2018-05-24T08:59:02.432Z,2.73
2018-05-24T09:01:30.081Z,3.37
2018-05-24T09:03:57.442Z,3.33
2018-05-24T09:06:24.921Z,3.60
2018-05-24T09:08:52.399Z,3.30
2018-05-24T09:11:19.868Z,3.53
2018-05-24T09:13:47.339Z,3.23
2018-05-24T09:16:15.599Z,3.57
2018-05-24T09:18:43.080Z,3.90
2018-05-24T09:21:11.296Z,3.50
2018-05-24T09:23:38.766Z,3.10
2018-05-24T09:26:06.237Z,3.00
2018-05-24T09:28:33.687Z,3.33
2018-05-24T09:31:01.944Z,3.30
2018-05-24T09:33:29.392Z,3.60
2018-05-24T09:35:56.849Z,3.57
2018-05-24T09:38:24.311Z,3.77
2018-05-24T09:40:51.784Z,3.50
2018-05-24T09:43:19.235Z,3.70
2018-05-24T09:45:46.723Z,4.03
2018-05-24T09:48:14.160Z,3.63
2018-05-24T09:50:41.632Z,3.30
2018-05-24T09:53:09.117Z,3.57
2018-05-24T09:55:36.573Z,3.87
2018-05-24T09:58:04.009Z,3.47
2018-05-24T10:00:32.248Z,3.10
2018-05-24T10:02:59.706Z,4.40
2018-05-24T10:05:27.177Z,4.00
2018-05-24T10:07:54.642Z,3.20
2018-05-24T10:10:22.146Z,3.70
2018-05-24T10:12:49.633Z,4.23
2018-05-24T10:15:17.092Z,4.20
2018-05-24T10:17:44.566Z,3.77
2018-05-24T10:20:12.011Z,4.33
2018-05-24T10:22:39.473Z,3.83
2018-05-24T10:25:06.949Z,4.27
2018-05-24T10:27:34.403Z,3.60
2018-05-24T10:30:01.836Z,3.60
2018-05-24T10:32:29.283Z,4.37
2018-05-24T10:34:57.534Z,4.67
2018-05-24T10:37:24.999Z,4.00
2018-05-24T10:39:52.441Z,3.83
2018-05-24T10:42:19.941Z,3.77
2018-05-24T10:44:47.416Z,3.80
2018-05-24T10:47:14.893Z,4.00
2018-05-24T10:49:42.381Z,4.20
2018-05-24T10:52:09.824Z,4.03
2018-05-24T10:54:38.045Z,4.50
2018-05-24T10:57:05.519Z,4.67
2018-05-24T10:59:33.080Z,5.10
2018-05-24T11:02:00.493Z,4.60
2018-05-24T11:04:27.936Z,5.30
2018-05-24T11:06:55.433Z,4.27
2018-05-24T11:09:23.644Z,5.10
2018-05-24T11:11:51.107Z,5.10
2018-05-24T11:14:18.574Z,5.20
2018-05-24T11:16:46.040Z,4.90
2018-05-24T11:19:13.519Z,4.97
2018-05-24T11:21:41.004Z,6.07
2018-05-24T11:24:08.470Z,4.50
2018-05-24T11:26:35.923Z,4.07
2018-05-24T11:29:03.394Z,4.60
2018-05-24T11:31:30.873Z,4.50
2018-05-24T11:33:58.331Z,4.73
2018-05-24T11:36:25.787Z,4.90
2018-05-24T11:38:53.266Z,4.70
2018-05-24T11:41:20.748Z,4.47
2018-05-24T11:43:48.978Z,4.60
2018-05-24T11:46:16.470Z,5.23
2018-05-24T11:48:43.942Z,4.43
2018-05-24T11:51:12.196Z,4.07
2018-05-24T11:53:39.669Z,4.60
2018-05-24T11:56:07.872Z,3.77
2018-05-24T11:58:35.333Z,4.57
2018-05-24T12:01:02.812Z,4.00
2018-05-24T12:03:30.261Z,3.50
2018-05-24T12:05:57.733Z,4.00
2018-05-24T12:08:25.978Z,3.63
2018-05-24T12:10:53.420Z,4.10
2018-05-24T12:13:21.669Z,4.00
2018-05-24T12:15:49.130Z,4.07
2018-05-24T12:18:16.579Z,3.83
2018-05-24T12:20:44.028Z,3.77
2018-05-24T12:23:11.503Z,4.23
2018-05-24T12:25:38.971Z,4.10
2018-05-24T12:28:06.468Z,4.20
2018-05-24T12:30:33.933Z,4.00
2018-05-24T12:33:01.422Z,4.30
2018-05-24T12:35:28.943Z,4.40
2018-05-24T12:37:56.349Z,4.20
2018-05-24T12:40:23.807Z,4.37
2018-05-24T12:42:51.280Z,5.17
2018-05-24T12:45:18.732Z,4.50
2018-05-24T12:47:46.952Z,4.20
2018-05-24T12:50:14.434Z,4.53
2018-05-24T12:52:41.881Z,4.03
2018-05-24T12:55:09.343Z,4.37
2018-05-24T12:57:36.821Z,4.70
2018-05-24T13:00:04.271Z,4.27
2018-05-24T13:02:31.756Z,4.50
2018-05-24T13:04:59.982Z,4.00
2018-05-24T13:07:27.462Z,4.90
2018-05-24T13:09:54.996Z,4.70
2018-05-24T13:12:23.168Z,4.13
2018-05-24T13:14:50.625Z,4.67
2018-05-24T13:17:18.094Z,4.77
2018-05-24T13:19:45.573Z,4.53
2018-05-24T13:22:13.086Z,4.40
2018-05-24T13:24:40.552Z,4.93
2018-05-24T13:27:08.232Z,4.60
2018-05-24T13:29:36.463Z,4.50
2018-05-24T13:32:04.740Z,4.50
2018-05-24T13:34:32.219Z,5.13
2018-05-24T13:36:59.657Z,4.20
2018-05-24T13:39:27.117Z,4.77
2018-05-24T13:41:54.580Z,5.23
2018-05-24T13:44:22.059Z,4.40
2018-05-24T13:46:49.535Z,4.60
2018-05-24T13:49:17.008Z,4.20
2018-05-24T13:51:44.521Z,4.20
2018-05-24T13:54:11.963Z,3.77
2018-05-24T13:56:39.443Z,3.23
2018-05-24T13:59:06.892Z,4.23
2018-05-24T14:01:34.403Z,3.47
2018-05-24T14:04:01.799Z,3.93
2018-05-24T14:06:29.375Z,3.80
2018-05-24T14:08:56.862Z,4.23
2018-05-24T14:11:24.309Z,4.10
2018-05-24T14:13:51.779Z,4.10
2018-05-24T14:16:19.219Z,3.70
2018-05-24T14:18:46.699Z,4.07
2018-05-24T14:21:14.145Z,3.70
2018-05-24T14:23:41.616Z,4.17
2018-05-24T14:26:09.121Z,3.50
2018-05-24T14:28:36.576Z,3.87
2018-05-24T14:31:04.785Z,3.77
2018-05-24T14:33:32.259Z,3.53
2018-05-24T14:35:59.734Z,3.40
2018-05-24T14:38:27.230Z,3.53
2018-05-24T14:40:54.693Z,4.00
2018-05-24T14:43:22.128Z,3.50
2018-05-24T14:45:50.367Z,4.10
2018-05-24T14:48:17.839Z,3.83
2018-05-24T14:50:45.300Z,3.67
2018-05-24T14:53:12.760Z,3.60
2018-05-24T14:55:40.255Z,3.20
2018-05-24T14:58:07.719Z,3.67
2018-05-24T15:00:35.173Z,3.83
2018-05-24T15:03:02.640Z,3.63
2018-05-24T15:05:30.090Z,3.40
2018-05-24T15:07:57.571Z,3.33
2018-05-24T15:10:25.016Z,3.47
2018-05-24T15:12:52.507Z,3.50
2018-05-24T15:15:19.960Z,3.20
2018-05-24T15:17:47.424Z,3.30
2018-05-24T15:20:14.893Z,3.40
2018-05-24T15:22:42.344Z,3.70
2018-05-24T15:25:09.791Z,4.20
2018-05-24T15:27:37.244Z,3.13
2018-05-24T15:30:04.720Z,3.50
2018-05-24T15:32:32.189Z,3.13
2018-05-24T15:35:00.491Z,3.93
2018-05-24T15:37:27.955Z,4.00
2018-05-24T15:39:55.415Z,3.30
2018-05-24T15:42:22.872Z,3.33
2018-05-24T15:44:50.330Z,3.40
2018-05-24T15:47:17.808Z,2.90
2018-05-24T15:49:45.261Z,3.10
2018-05-24T15:52:12.735Z,3.33
2018-05-24T15:54:40.223Z,3.40
2018-05-24T15:57:07.704Z,3.27
2018-05-24T15:59:35.467Z,3.10
2018-05-24T16:02:02.997Z,3.03
2018-05-24T16:04:30.438Z,3.00
2018-05-24T16:06:57.912Z,3.30
2018-05-24T16:09:26.133Z,3.00
2018-05-24T16:11:53.616Z,2.70
2018-05-24T16:14:21.073Z,2.47
2018-05-24T16:16:48.529Z,2.57
2018-05-24T16:19:15.963Z,2.60
2018-05-24T16:21:43.426Z,2.80
2018-05-24T16:24:10.909Z,2.87
2018-05-24T16:26:38.367Z,2.60
2018-05-24T16:29:05.833Z,2.27
2018-05-24T16:31:33.285Z,2.50
2018-05-24T16:34:00.797Z,2.27
2018-05-24T16:36:29.020Z,2.13
2018-05-24T16:38:56.504Z,2.40
2018-05-24T16:41:24.733Z,2.30
2018-05-24T16:43:52.207Z,2.43
2018-05-24T16:46:19.684Z,2.10
2018-05-24T16:48:47.152Z,2.10
2018-05-24T16:51:15.377Z,1.93
2018-05-24T16:53:42.837Z,2.27
2018-05-24T16:56:10.312Z,2.60
2018-05-24T16:58:37.760Z,2.33
2018-05-24T17:01:05.244Z,2.10
2018-05-24T17:03:32.720Z,2.37
2018-05-24T17:06:00.933Z,1.97
2018-05-24T17:08:28.398Z,1.90
2018-05-24T17:10:55.866Z,2.07
2018-05-24T17:13:23.344Z,2.00
2018-05-24T17:15:50.789Z,2.17
2018-05-24T17:18:18.285Z,1.90
2018-05-24T17:20:46.536Z,2.37
2018-05-24T17:23:14.009Z,2.20
2018-05-24T17:25:42.241Z,2.27
2018-05-24T17:28:10.459Z,1.90
2018-05-24T17:30:38.681Z,1.97
2018-05-24T17:33:06.132Z,2.00
2018-05-24T17:35:33.583Z,1.97
2018-05-24T17:38:01.050Z,1.80
2018-05-24T17:40:28.871Z,2.10
2018-05-24T17:42:57.125Z,2.20
2018-05-24T17:45:24.583Z,1.90
2018-05-24T17:47:52.066Z,2.13
2018-05-24T17:50:20.291Z,1.90
2018-05-24T17:52:47.752Z,2.17
2018-05-24T17:55:15.200Z,1.80
2018-05-24T17:57:42.662Z,2.13
2018-05-24T18:00:10.123Z,2.27
2018-05-24T18:02:37.563Z,2.40
2018-05-24T18:05:05.033Z,2.60
2018-05-24T18:07:32.497Z,3.37
2018-05-24T18:09:59.978Z,2.90
2018-05-24T18:12:27.419Z,3.00
2018-05-24T18:14:54.967Z,2.97
2018-05-24T18:17:22.372Z,3.17
2018-05-24T18:19:50.579Z,3.10
2018-05-24T18:22:18.064Z,3.17
2018-05-24T18:24:45.503Z,3.13
2018-05-24T18:27:13.006Z,3.60
2018-05-24T18:29:40.485Z,3.63
2018-05-24T18:32:08.737Z,3.47
2018-05-24T18:34:36.208Z,3.40
2018-05-24T18:37:05.193Z,3.37
2018-05-24T18:39:32.634Z,3.73
2018-05-24T18:42:00.073Z,3.90
2018-05-24T18:44:27.529Z,4.33
2018-05-24T18:46:54.999Z,3.73
2018-05-24T18:49:22.476Z,4.10
2018-05-24T18:51:49.926Z,4.10
2018-05-24T18:54:17.399Z,3.73
2018-05-24T18:56:45.636Z,3.47
2018-05-24T18:59:13.120Z,3.30
2018-05-24T19:01:40.598Z,3.60
2018-05-24T19:04:08.823Z,3.50
2018-05-24T19:06:36.296Z,2.90
2018-05-24T19:09:03.799Z,3.50
2018-05-24T19:11:32.008Z,3.40
2018-05-24T19:13:59.477Z,3.03
2018-05-24T19:16:26.933Z,3.77
2018-05-24T19:18:54.392Z,3.77
2018-05-24T19:21:21.873Z,3.23
2018-05-24T19:23:49.336Z,3.40
2018-05-24T19:26:16.783Z,3.70
2018-05-24T19:28:44.248Z,3.87
2018-05-24T19:31:11.717Z,3.60
2018-05-24T19:33:39.209Z,4.13
2018-05-24T19:36:06.686Z,4.27
2018-05-24T19:38:34.147Z,4.30
2018-05-24T19:41:01.621Z,4.03
2018-05-24T19:43:29.104Z,4.30
2018-05-24T19:45:56.579Z,3.90
2018-05-24T19:48:24.067Z,4.50
2018-05-24T19:50:51.532Z,3.97
2018-05-24T19:53:18.999Z,4.10
2018-05-24T19:55:46.464Z,4.40
2018-05-24T19:58:13.909Z,4.20
2018-05-24T20:00:41.369Z,4.57
2018-05-24T20:03:08.824Z,4.93
2018-05-24T20:05:36.519Z,4.00
2018-05-24T20:08:04.290Z,4.90
2018-05-24T20:10:32.017Z,4.73
2018-05-24T20:12:59.759Z,5.40
2018-05-24T20:15:27.501Z,5.33
2018-05-24T20:17:55.234Z,5.17
2018-05-24T20:20:23.725Z,4.80
2018-05-24T20:22:51.515Z,5.33
2018-05-24T20:25:19.256Z,4.93
2018-05-24T20:27:46.962Z,5.40
2018-05-24T20:30:14.691Z,5.03
2018-05-24T20:32:42.416Z,5.27
2018-05-24T20:35:10.923Z,4.57
2018-05-24T20:37:38.645Z,4.90
2018-05-24T20:40:06.379Z,4.93
2018-05-24T20:42:33.956Z,5.50
2018-05-24T20:45:01.471Z,5.57
2018-05-24T20:47:28.932Z,5.37
2018-05-24T20:49:57.174Z,6.37
2018-05-24T20:52:24.644Z,5.07
2018-05-24T20:54:52.095Z,5.07
2018-05-24T20:57:19.557Z,5.43
2018-05-24T20:59:47.042Z,5.90
2018-05-24T21:02:15.255Z,5.37
2018-05-24T21:04:42.721Z,5.60
2018-05-24T21:07:10.204Z,5.70
2018-05-24T21:09:37.636Z,5.70
2018-05-24T21:12:05.110Z,5.20
2018-05-24T21:14:32.555Z,5.67
2018-05-24T21:17:00.009Z,5.47
2018-05-24T21:19:27.489Z,5.00
2018-05-24T21:21:54.942Z,5.17
2018-05-24T21:24:22.396Z,5.37
2018-05-24T21:26:49.857Z,5.13
2018-05-24T21:29:17.328Z,5.23
2018-05-24T21:31:44.773Z,6.00
2018-05-24T21:34:12.229Z,5.40
2018-05-24T21:36:39.706Z,5.40
2018-05-24T21:39:07.143Z,5.40
2018-05-24T21:41:34.620Z,5.90
2018-05-24T21:44:02.075Z,5.73
2018-05-24T21:46:29.553Z,5.10
2018-05-24T21:48:57.778Z,5.40
2018-05-24T21:51:25.225Z,5.43
2018-05-24T21:53:52.682Z,5.33
2018-05-24T21:56:20.149Z,5.40
2018-05-24T21:58:47.616Z,5.50
2018-05-24T22:01:15.069Z,5.37
2018-05-24T22:03:42.523Z,6.10
2018-05-24T22:06:09.980Z,6.10
2018-05-24T22:08:37.468Z,5.27
2018-05-24T22:11:04.915Z,5.63
2018-05-24T22:13:32.377Z,5.37
2018-05-24T22:15:59.848Z,5.90
2018-05-24T22:18:28.101Z,4.87
2018-05-24T22:20:55.565Z,5.90
2018-05-24T22:23:23.008Z,5.40
2018-05-24T22:25:50.471Z,5.50
2018-05-24T22:28:17.923Z,5.17
2018-05-24T22:30:45.376Z,5.40
2018-05-24T22:33:12.836Z,5.87
2018-05-24T22:35:40.301Z,5.33
2018-05-24T22:38:07.760Z,5.77
2018-05-24T22:40:35.227Z,6.03
2018-05-24T22:43:02.718Z,4.70
2018-05-24T22:45:30.222Z,5.73
2018-05-24T22:47:57.680Z,5.60
2018-05-24T22:50:25.152Z,6.00
2018-05-24T22:52:52.638Z,6.20
2018-05-24T22:55:20.847Z,6.20
2018-05-24T22:57:48.337Z,5.97
2018-05-24T23:00:15.850Z,5.53
2018-05-24T23:02:44.073Z,6.17
2018-05-24T23:05:11.523Z,5.70
2018-05-24T23:07:39.013Z,5.87
2018-05-24T23:10:07.246Z,6.00
2018-05-24T23:12:34.736Z,6.10
2018-05-24T23:15:02.201Z,5.23
2018-05-24T23:17:30.444Z,5.87
2018-05-24T23:19:57.933Z,6.17
2018-05-24T23:22:37.107Z,5.80
2018-05-24T23:25:04.565Z,6.03
2018-05-24T23:27:32.014Z,6.20
2018-05-24T23:29:59.490Z,6.47
2018-05-24T23:32:26.933Z,6.20
2018-05-24T23:34:54.423Z,6.37
2018-05-24T23:37:21.887Z,6.23
2018-05-24T23:39:49.344Z,5.23
2018-05-24T23:42:16.795Z,6.10
2018-05-24T23:44:44.327Z,6.27
2018-05-24T23:47:11.781Z,6.53
2018-05-24T23:49:39.268Z,6.13
2018-05-24T23:52:06.719Z,5.57
2018-05-24T23:54:34.210Z,5.37
2018-05-24T23:57:01.697Z,6.00
2018-05-24T23:59:29.665Z,6.53
